createdAt,value
2022-08-26T00:01:55.662Z,25.95
2022-08-26T00:04:25.333Z,24.52
2022-08-26T00:06:53.920Z,26.00
2022-08-26T00:09:20.655Z,33.70
2022-08-26T00:11:47.492Z,24.75
2022-08-26T00:14:14.719Z,22.00
2022-08-26T00:16:47.952Z,22.08
2022-08-26T00:19:20.251Z,29.70
2022-08-26T00:21:48.620Z,23.70
2022-08-26T00:24:15.957Z,25.70
2022-08-26T00:26:42.488Z,22.05
2022-08-26T00:29:09.569Z,24.63
2022-08-26T00:31:37.484Z,21.58
2022-08-26T00:34:04.067Z,27.60
2022-08-26T00:36:32.431Z,26.92
2022-08-26T00:38:59.511Z,21.10
2022-08-26T00:41:26.539Z,19.52
2022-08-26T00:43:54.251Z,17.15
2022-08-26T00:46:25.323Z,20.40
2022-08-26T00:49:05.541Z,19.75
2022-08-26T00:51:47.314Z,20.48
2022-08-26T00:54:16.444Z,23.17
2022-08-26T00:56:52.918Z,26.35
2022-08-26T00:59:20.375Z,22.65
2022-08-26T01:01:47.111Z,17.85
2022-08-26T01:04:19.272Z,23.60
2022-08-26T01:06:48.578Z,23.35
2022-08-26T01:09:16.115Z,24.92
2022-08-26T01:11:42.814Z,20.92
2022-08-26T01:14:12.438Z,25.70
2022-08-26T01:16:39.611Z,23.33
2022-08-26T01:19:27.098Z,28.50
2022-08-26T01:22:02.453Z,24.42
2022-08-26T01:24:30.815Z,21.20
2022-08-26T01:27:05.132Z,22.25
2022-08-26T01:29:33.694Z,21.45
2022-08-26T01:32:00.687Z,19.67
2022-08-26T01:34:35.017Z,18.17
2022-08-26T01:37:05.431Z,19.35
2022-08-26T01:39:33.704Z,25.95
2022-08-26T01:42:03.135Z,23.40
2022-08-26T01:44:36.343Z,22.10
2022-08-26T01:47:05.136Z,24.90
2022-08-26T01:49:35.733Z,28.75
2022-08-26T01:52:04.836Z,27.55
2022-08-26T01:54:32.459Z,31.95
2022-08-26T01:57:00.357Z,23.85
2022-08-26T01:59:27.067Z,36.15
2022-08-26T02:01:53.844Z,26.58
2022-08-26T02:04:36.030Z,25.25
2022-08-26T02:07:06.481Z,20.38
2022-08-26T02:09:41.290Z,18.88
2022-08-26T02:12:09.370Z,27.13
2022-08-26T02:14:44.446Z,27.42
2022-08-26T02:17:11.883Z,21.20
2022-08-26T02:19:41.918Z,20.52
2022-08-26T02:22:14.989Z,24.52
2022-08-26T02:24:59.479Z,23.25
2022-08-26T02:27:31.997Z,15.55
2022-08-26T02:30:07.819Z,18.35
2022-08-26T02:32:34.376Z,19.58
2022-08-26T02:35:01.865Z,25.00
2022-08-26T02:37:31.231Z,21.80
2022-08-26T02:39:58.096Z,19.00
2022-08-26T02:42:24.741Z,22.95
2022-08-26T02:44:51.819Z,21.50
2022-08-26T02:47:18.387Z,25.10
2022-08-26T02:49:47.228Z,22.92
2022-08-26T02:52:14.831Z,17.25
2022-08-26T02:54:41.479Z,26.00
2022-08-26T02:57:08.135Z,65.43
2022-08-26T02:59:36.058Z,21.45
2022-08-26T03:02:03.235Z,17.55
2022-08-26T03:04:30.460Z,25.20
2022-08-26T03:07:00.019Z,51.00
2022-08-26T03:09:27.541Z,19.23
2022-08-26T03:11:55.522Z,20.38
2022-08-26T03:14:23.972Z,18.95
2022-08-26T03:16:54.470Z,23.20
2022-08-26T03:19:25.585Z,22.70
2022-08-26T03:21:53.734Z,22.17
2022-08-26T03:24:25.556Z,25.33
2022-08-26T03:26:52.875Z,23.55
2022-08-26T03:29:39.516Z,30.13
2022-08-26T03:32:06.270Z,34.40
2022-08-26T03:34:33.439Z,30.73
2022-08-26T03:37:00.310Z,23.58
2022-08-26T03:39:26.882Z,26.50
2022-08-26T03:41:54.258Z,25.05
2022-08-26T03:44:21.051Z,20.63
2022-08-26T03:46:47.641Z,21.42
2022-08-26T03:49:15.198Z,16.95
2022-08-26T03:51:42.145Z,17.52
2022-08-26T03:54:09.412Z,19.27
2022-08-26T03:56:37.186Z,20.45
2022-08-26T03:59:07.599Z,23.95
2022-08-26T04:01:34.995Z,21.73
2022-08-26T04:04:01.809Z,23.25
2022-08-26T04:06:33.448Z,26.50
2022-08-26T04:09:04.309Z,26.85
2022-08-26T04:11:34.034Z,23.55
2022-08-26T04:14:04.332Z,23.33
2022-08-26T04:16:31.446Z,26.48
2022-08-26T04:18:58.465Z,25.98
2022-08-26T04:21:25.880Z,20.65
2022-08-26T04:23:54.364Z,17.50
2022-08-26T04:26:22.551Z,21.05
2022-08-26T04:28:51.123Z,20.65
2022-08-26T04:31:18.909Z,18.63
2022-08-26T04:33:47.598Z,22.52
2022-08-26T04:36:17.459Z,19.95
2022-08-26T04:38:46.607Z,19.50
2022-08-26T04:41:15.082Z,20.42
2022-08-26T04:43:43.958Z,17.52
2022-08-26T04:46:12.818Z,18.20
2022-08-26T04:48:41.093Z,16.02
2022-08-26T04:51:09.701Z,16.20
2022-08-26T04:53:36.867Z,21.33
2022-08-26T04:56:04.409Z,14.80
2022-08-26T04:58:31.256Z,15.35
2022-08-26T05:00:58.501Z,21.33
2022-08-26T05:03:30.530Z,13.77
2022-08-26T05:05:58.907Z,14.90
2022-08-26T05:08:25.820Z,20.70
2022-08-26T05:10:56.263Z,18.05
2022-08-26T05:13:27.477Z,17.13
2022-08-26T05:15:54.720Z,15.40
2022-08-26T05:18:27.539Z,13.40
2022-08-26T05:20:55.040Z,13.82
2022-08-26T05:23:23.271Z,17.92
2022-08-26T05:25:54.639Z,16.92
2022-08-26T05:28:22.080Z,15.05
2022-08-26T05:30:50.190Z,13.65
2022-08-26T05:33:18.489Z,14.43
2022-08-26T05:35:45.860Z,14.88
2022-08-26T05:38:15.601Z,18.58
2022-08-26T05:40:44.785Z,17.27
2022-08-26T05:43:13.318Z,14.52
2022-08-26T05:45:45.844Z,15.30
2022-08-26T05:48:13.838Z,15.98
2022-08-26T05:50:43.852Z,16.17
2022-08-26T05:53:12.322Z,18.25
2022-08-26T05:55:44.395Z,16.83
2022-08-26T05:58:12.454Z,18.85
2022-08-26T06:00:40.567Z,15.35
2022-08-26T06:03:08.352Z,16.92
2022-08-26T06:05:41.946Z,13.32
2022-08-26T06:08:11.391Z,16.42
2022-08-26T06:10:55.585Z,15.60
2022-08-26T06:13:26.861Z,17.30
2022-08-26T06:15:54.617Z,16.23
2022-08-26T06:18:36.405Z,14.60
2022-08-26T06:21:31.452Z,16.00
2022-08-26T06:24:20.387Z,12.10
2022-08-26T06:27:01.474Z,18.17
2022-08-26T06:29:30.112Z,21.98
2022-08-26T06:31:57.973Z,15.65
2022-08-26T06:34:29.763Z,15.70
2022-08-26T06:36:59.757Z,17.90
2022-08-26T06:39:28.309Z,15.70
2022-08-26T06:41:57.641Z,14.15
2022-08-26T06:44:24.201Z,16.80
2022-08-26T06:46:51.376Z,14.38
2022-08-26T06:49:18.181Z,17.33
2022-08-26T06:51:52.705Z,13.90
2022-08-26T06:54:19.591Z,14.68
2022-08-26T06:56:46.407Z,15.13
2022-08-26T06:59:15.370Z,17.60
2022-08-26T07:01:44.826Z,13.38
2022-08-26T07:04:14.600Z,14.98
2022-08-26T07:06:47.068Z,13.90
2022-08-26T07:09:13.628Z,17.00
2022-08-26T07:11:41.746Z,16.67
2022-08-26T07:14:09.088Z,15.60
2022-08-26T07:16:35.965Z,17.85
2022-08-26T07:19:03.589Z,17.08
2022-08-26T07:21:40.372Z,15.85
2022-08-26T07:24:07.592Z,16.88
2022-08-26T07:26:34.529Z,16.92
2022-08-26T07:29:01.795Z,19.50
2022-08-26T07:31:39.273Z,15.93
2022-08-26T07:34:09.319Z,14.55
2022-08-26T07:36:36.631Z,13.35
2022-08-26T07:39:03.869Z,13.95
2022-08-26T07:43:56.821Z,17.85
2022-08-26T07:49:15.784Z,16.38
2022-08-26T07:51:42.393Z,17.75
2022-08-26T07:54:10.201Z,14.98
2022-08-26T07:56:39.486Z,13.20
2022-08-26T07:59:13.835Z,12.15
2022-08-26T08:01:45.173Z,11.82
2022-08-26T08:04:17.320Z,18.50
2022-08-26T08:06:45.048Z,13.75
2022-08-26T08:09:14.096Z,17.38
2022-08-26T08:11:43.535Z,19.98
2022-08-26T08:14:11.978Z,21.95
2022-08-26T08:16:41.519Z,14.63
2022-08-26T08:19:13.574Z,15.02
2022-08-26T08:21:41.909Z,12.75
2022-08-26T08:24:08.520Z,14.25
2022-08-26T08:26:35.501Z,15.52
2022-08-26T08:29:02.890Z,21.73
2022-08-26T08:31:56.069Z,15.60
2022-08-26T08:34:19.226Z,16.02
2022-08-26T08:36:48.123Z,14.98
2022-08-26T08:39:14.657Z,17.65
2022-08-26T08:42:07.449Z,16.08
2022-08-26T08:44:41.352Z,14.93
2022-08-26T08:47:33.995Z,13.13
2022-08-26T08:50:12.474Z,14.88
2022-08-26T08:52:43.036Z,14.10
2022-08-26T08:55:16.104Z,15.07
2022-08-26T08:58:02.571Z,22.88
2022-08-26T09:00:39.769Z,16.05
2022-08-26T09:03:31.738Z,16.30
2022-08-26T09:06:00.501Z,14.43
2022-08-26T09:08:35.238Z,13.38
2022-08-26T09:11:03.666Z,16.85
2022-08-26T09:13:31.702Z,15.80
2022-08-26T09:16:13.956Z,15.77
2022-08-26T09:18:47.711Z,14.45
2022-08-26T09:21:17.864Z,11.55
2022-08-26T09:23:49.175Z,11.45
2022-08-26T09:26:24.787Z,11.43
2022-08-26T09:28:57.467Z,11.98
2022-08-26T09:31:27.679Z,11.18
2022-08-26T09:34:17.866Z,12.38
2022-08-26T09:36:53.583Z,16.30
2022-08-26T09:39:37.801Z,12.13
2022-08-26T09:42:07.770Z,13.38
2022-08-26T09:44:52.128Z,13.75
2022-08-26T09:47:25.660Z,12.45
2022-08-26T09:50:09.920Z,11.55
2022-08-26T09:52:40.343Z,12.82
2022-08-26T09:55:22.006Z,11.85
2022-08-26T09:57:54.731Z,11.57
2022-08-26T10:00:44.035Z,12.57
2022-08-26T10:03:17.265Z,19.02
2022-08-26T10:05:58.437Z,14.10
2022-08-26T10:08:41.285Z,11.77
2022-08-26T10:11:24.503Z,10.30
2022-08-26T10:13:56.859Z,10.02
2022-08-26T10:16:30.284Z,11.02
2022-08-26T10:19:15.813Z,14.52
2022-08-26T10:22:06.014Z,9.07
2022-08-26T10:24:44.188Z,12.18
2022-08-26T10:27:36.442Z,12.80
2022-08-26T10:30:23.485Z,14.07
2022-08-26T10:33:26.309Z,8.98
2022-08-26T10:42:58.436Z,8.77
2022-08-26T10:45:31.907Z,9.57
2022-08-26T10:48:06.800Z,9.55
2022-08-26T10:50:38.129Z,12.82
2022-08-26T10:53:25.018Z,13.73
2022-08-26T10:56:15.901Z,11.80
2022-08-26T10:59:13.577Z,13.68
2022-08-26T11:01:52.581Z,9.40
2022-08-26T11:04:48.210Z,7.75
2022-08-26T11:07:35.314Z,11.32
2022-08-26T11:10:31.091Z,9.50
2022-08-26T11:15:30.051Z,9.27
2022-08-26T11:18:03.314Z,10.75
2022-08-26T11:41:33.637Z,9.32
2022-08-26T11:44:02.007Z,10.32
2022-08-26T11:46:37.523Z,9.63
2022-08-26T11:49:07.321Z,8.77
2022-08-26T11:51:40.489Z,8.15
2022-08-26T11:54:14.797Z,6.80
2022-08-26T11:56:44.773Z,9.27
2022-08-26T11:59:15.553Z,7.35
2022-08-26T12:01:45.298Z,10.60
2022-08-26T12:04:28.730Z,8.60
2022-08-26T12:06:57.067Z,14.38
2022-08-26T12:09:27.156Z,7.05
2022-08-26T12:12:27.067Z,10.35
2022-08-26T12:15:14.155Z,9.27
2022-08-26T12:17:42.061Z,6.50
2022-08-26T12:20:30.372Z,9.52
2022-08-26T12:23:00.093Z,11.60
2022-08-26T12:25:28.088Z,21.10
2022-08-26T12:28:05.511Z,8.95
2022-08-26T12:30:32.096Z,7.65
2022-08-26T12:33:21.933Z,15.20
2022-08-26T12:35:51.474Z,11.23
2022-08-26T12:38:21.600Z,9.52
2022-08-26T12:40:50.373Z,11.13
2022-08-26T12:43:43.579Z,11.68
2022-08-26T12:46:13.749Z,5.90
2022-08-26T12:48:44.779Z,8.85
2022-08-26T12:51:25.677Z,7.20
2022-08-26T12:53:53.384Z,11.02
2022-08-26T12:56:29.932Z,10.63
2022-08-26T12:59:11.173Z,10.35
2022-08-26T13:01:43.240Z,9.88
2022-08-26T13:04:37.967Z,8.80
2022-08-26T13:07:22.386Z,8.35
2022-08-26T13:09:54.477Z,11.80
2022-08-26T13:12:27.592Z,8.88
2022-08-26T13:14:54.803Z,14.98
2022-08-26T13:17:21.533Z,6.05
2022-08-26T13:19:49.266Z,9.13
2022-08-26T13:22:22.542Z,10.73
2022-08-26T13:24:49.119Z,11.07
2022-08-26T13:27:16.224Z,7.15
2022-08-26T13:29:43.509Z,10.73
2022-08-26T13:32:10.903Z,10.90
2022-08-26T13:34:38.130Z,6.50
2022-08-26T13:37:05.250Z,9.13
2022-08-26T13:39:32.244Z,15.32
2022-08-26T13:41:58.906Z,8.15
2022-08-26T13:44:25.886Z,10.32
2022-08-26T13:46:52.588Z,7.13
2022-08-26T13:49:19.180Z,8.90
2022-08-26T13:51:45.754Z,10.80
2022-08-26T13:54:12.341Z,10.82
2022-08-26T13:56:39.205Z,9.23
2022-08-26T13:59:06.676Z,8.35
2022-08-26T14:01:34.718Z,9.95
2022-08-26T14:04:03.121Z,11.70
2022-08-26T14:06:30.416Z,8.73
2022-08-26T14:08:57.537Z,8.25
2022-08-26T14:11:25.110Z,10.20
2022-08-26T14:13:51.934Z,9.15
2022-08-26T14:16:25.667Z,7.68
2022-08-26T14:18:53.100Z,9.98
2022-08-26T14:21:19.835Z,9.27
2022-08-26T14:23:46.673Z,9.55
2022-08-26T14:26:23.098Z,9.43
2022-08-26T14:28:59.818Z,9.07
2022-08-26T14:31:29.360Z,10.70
2022-08-26T14:34:02.615Z,8.48
2022-08-26T14:36:29.490Z,10.13
2022-08-26T14:38:58.456Z,9.43
2022-08-26T14:41:25.543Z,7.53
2022-08-26T14:44:00.273Z,7.28
2022-08-26T14:46:30.334Z,10.25
2022-08-26T14:49:01.837Z,8.65
2022-08-26T14:51:29.778Z,9.57
2022-08-26T14:54:15.321Z,7.57
2022-08-26T14:59:21.507Z,7.63
2022-08-26T15:01:49.639Z,9.50
2022-08-26T15:04:16.613Z,7.10
2022-08-26T15:09:37.621Z,7.70
2022-08-26T15:12:05.902Z,7.18
2022-08-26T15:14:33.361Z,7.28
2022-08-26T15:17:00.838Z,8.15
2022-08-26T15:19:27.713Z,9.00
2022-08-26T15:21:54.524Z,6.68
2022-08-26T15:24:23.203Z,6.97
2022-08-26T15:26:50.462Z,13.32
2022-08-26T15:29:17.510Z,9.50
2022-08-26T15:31:44.345Z,9.77
2022-08-26T15:34:16.412Z,10.07
2022-08-26T15:36:44.964Z,8.20
2022-08-26T15:39:12.245Z,8.65
2022-08-26T15:41:39.533Z,11.30
2022-08-26T15:44:07.854Z,8.52
2022-08-26T15:46:35.714Z,11.27
2022-08-26T15:49:04.294Z,11.98
2022-08-26T15:51:34.212Z,9.82
2022-08-26T15:54:02.936Z,12.75
2022-08-26T15:56:34.720Z,9.63
2022-08-26T15:59:02.491Z,7.72
2022-08-26T16:01:32.066Z,8.98
2022-08-26T16:03:59.796Z,10.68
2022-08-26T16:06:30.773Z,8.93
2022-08-26T16:08:58.060Z,13.00
2022-08-26T16:11:26.190Z,8.98
2022-08-26T16:13:52.783Z,10.57
2022-08-26T16:16:19.622Z,8.50
2022-08-26T16:18:48.519Z,9.90
2022-08-26T16:21:19.424Z,9.00
2022-08-26T16:23:46.368Z,12.80
2022-08-26T16:26:16.373Z,7.90
2022-08-26T16:28:43.800Z,9.73
2022-08-26T16:31:10.931Z,8.70
2022-08-26T16:33:37.966Z,9.52
2022-08-26T16:36:05.568Z,10.88
2022-08-26T16:38:32.402Z,12.80
2022-08-26T16:41:01.407Z,8.20
2022-08-26T16:43:28.736Z,11.52
2022-08-26T16:45:56.184Z,10.88
2022-08-26T16:48:23.662Z,7.75
2022-08-26T16:50:51.230Z,7.80
2022-08-26T16:53:19.129Z,10.90
2022-08-26T16:55:47.623Z,9.30
2022-08-26T16:58:15.094Z,7.95
2022-08-26T17:00:41.845Z,8.15
2022-08-26T17:03:08.797Z,14.07
2022-08-26T17:05:36.377Z,12.35
2022-08-26T17:08:04.193Z,12.20
2022-08-26T17:10:32.297Z,8.25
2022-08-26T17:12:59.185Z,8.27
2022-08-26T17:15:26.083Z,11.43
2022-08-26T17:17:53.932Z,6.68
2022-08-26T17:20:22.464Z,10.00
2022-08-26T17:22:51.063Z,8.27
2022-08-26T17:25:24.603Z,9.38
2022-08-26T17:27:51.480Z,6.63
2022-08-26T17:30:18.876Z,8.75
2022-08-26T17:32:46.307Z,11.63
2022-08-26T17:35:14.249Z,8.50
2022-08-26T17:37:41.690Z,11.15
2022-08-26T17:40:15.404Z,9.18
2022-08-26T17:42:42.511Z,10.45
2022-08-26T17:45:10.260Z,10.63
2022-08-26T17:47:37.474Z,9.85
2022-08-26T17:50:05.901Z,7.82
2022-08-26T17:52:32.820Z,11.27
2022-08-26T17:54:59.427Z,10.02
2022-08-26T17:57:26.126Z,9.07
2022-08-26T17:59:53.549Z,7.57
2022-08-26T18:02:21.157Z,8.30
2022-08-26T18:04:48.488Z,9.18
2022-08-26T18:07:16.187Z,8.82
2022-08-26T18:09:43.188Z,9.90
2022-08-26T18:12:09.937Z,11.88
2022-08-26T18:14:36.813Z,12.38
2022-08-26T18:17:04.346Z,7.82
2022-08-26T18:19:31.464Z,10.18
2022-08-26T18:21:58.400Z,7.50
2022-08-26T18:24:30.308Z,13.13
2022-08-26T18:26:57.032Z,9.10
2022-08-26T18:29:25.662Z,9.43
2022-08-26T18:31:52.484Z,11.88
2022-08-26T18:34:19.477Z,8.00
2022-08-26T18:36:46.771Z,8.05
2022-08-26T18:39:15.006Z,11.68
2022-08-26T18:41:49.017Z,8.05
2022-08-26T18:44:18.184Z,7.82
2022-08-26T18:46:46.433Z,12.35
2022-08-26T18:49:15.106Z,8.25
2022-08-26T18:51:42.868Z,12.52
2022-08-26T18:54:10.419Z,8.30
2022-08-26T18:56:39.276Z,7.43
2022-08-26T18:59:07.629Z,10.52
2022-08-26T19:01:35.288Z,11.90
2022-08-26T19:04:03.519Z,10.63
2022-08-26T19:06:32.884Z,9.25
2022-08-26T19:08:59.980Z,13.98
2022-08-26T19:11:31.566Z,10.88
2022-08-26T19:14:00.744Z,8.57
2022-08-26T19:16:28.237Z,10.32
2022-08-26T19:18:56.063Z,11.45
2022-08-26T19:21:23.490Z,10.18
2022-08-26T19:23:50.708Z,8.95
2022-08-26T19:26:17.642Z,10.50
2022-08-26T19:28:44.197Z,13.35
2022-08-26T19:31:12.060Z,11.40
2022-08-26T19:33:42.906Z,9.30
2022-08-26T19:36:15.019Z,15.13
2022-08-26T19:38:42.795Z,10.85
2022-08-26T19:41:13.814Z,12.23
2022-08-26T19:43:40.699Z,12.80
2022-08-26T19:46:16.165Z,12.73
2022-08-26T19:48:46.661Z,8.45
2022-08-26T19:51:27.126Z,12.05
2022-08-26T19:53:55.640Z,11.27
2022-08-26T19:56:23.066Z,12.05
2022-08-26T19:58:50.484Z,10.82
2022-08-26T20:01:18.173Z,11.63
2022-08-26T20:03:45.748Z,13.82
2022-08-26T20:06:14.417Z,9.35
2022-08-26T20:08:42.355Z,12.63
2022-08-26T20:11:14.538Z,9.57
2022-08-26T20:13:42.134Z,13.77
2022-08-26T20:16:10.435Z,8.15
2022-08-26T20:18:55.464Z,10.60
2022-08-26T20:21:28.482Z,11.85
2022-08-26T20:24:01.169Z,10.48
2022-08-26T20:26:29.507Z,9.77
2022-08-26T20:28:57.916Z,10.05
2022-08-26T20:31:25.904Z,10.43
2022-08-26T20:33:53.625Z,12.38
2022-08-26T20:36:22.704Z,9.52
2022-08-26T20:38:50.215Z,10.57
2022-08-26T20:41:17.380Z,12.27
2022-08-26T20:43:45.289Z,11.48
2022-08-26T20:46:18.128Z,11.75
2022-08-26T20:48:46.648Z,9.75
2022-08-26T20:51:15.749Z,8.52
2022-08-26T20:53:42.637Z,10.82
2022-08-26T20:56:10.818Z,9.55
2022-08-26T20:58:38.183Z,11.98
2022-08-26T21:01:07.968Z,11.57
2022-08-26T21:03:36.173Z,11.32
2022-08-26T21:06:03.873Z,8.93
2022-08-26T21:08:33.198Z,8.65
2022-08-26T21:11:00.800Z,13.32
2022-08-26T21:13:35.784Z,10.00
2022-08-26T21:16:10.188Z,12.25
2022-08-26T21:18:37.089Z,12.32
2022-08-26T21:21:08.384Z,11.10
2022-08-26T21:23:36.215Z,13.75
2022-08-26T21:26:08.666Z,11.77
2022-08-26T21:28:36.783Z,10.23
2022-08-26T21:31:05.259Z,12.82
2022-08-26T21:33:32.348Z,11.13
2022-08-26T21:35:59.694Z,11.35
2022-08-26T21:38:26.689Z,12.20
2022-08-26T21:40:59.560Z,12.23
2022-08-26T21:43:35.062Z,12.00
2022-08-26T21:46:07.968Z,13.55
2022-08-26T21:48:35.964Z,16.55
2022-08-26T21:51:04.969Z,14.35
2022-08-26T21:53:31.944Z,12.23
2022-08-26T21:55:58.699Z,11.88
2022-08-26T21:58:25.332Z,11.02
2022-08-26T22:00:52.039Z,12.68
2022-08-26T22:03:18.888Z,11.63
2022-08-26T22:05:51.397Z,10.57
2022-08-26T22:08:23.036Z,13.88
2022-08-26T22:10:55.148Z,11.05
2022-08-26T22:13:29.685Z,11.35
2022-08-26T22:15:57.962Z,13.15
2022-08-26T22:18:26.848Z,11.55
2022-08-26T22:20:55.582Z,15.05
2022-08-26T22:23:22.996Z,12.77
2022-08-26T22:25:50.655Z,12.60
2022-08-26T22:28:18.076Z,9.38
2022-08-26T22:30:46.650Z,11.48
2022-08-26T22:33:14.248Z,13.55
2022-08-26T22:35:44.988Z,14.32
2022-08-26T22:38:11.959Z,11.35
2022-08-26T22:40:44.575Z,11.23
2022-08-26T22:43:12.918Z,15.38
2022-08-26T22:45:45.774Z,14.88
2022-08-26T22:48:15.632Z,12.80
2022-08-26T22:50:44.226Z,13.70
2022-08-26T22:53:10.891Z,12.68
2022-08-26T22:55:38.054Z,13.95
2022-08-26T22:58:06.041Z,12.75
2022-08-26T23:00:33.236Z,14.38
2022-08-26T23:03:01.008Z,10.80
2022-08-26T23:05:27.738Z,13.60
2022-08-26T23:07:56.299Z,15.30
2022-08-26T23:10:26.527Z,13.50
2022-08-26T23:12:53.707Z,10.35
2022-08-26T23:15:21.314Z,11.57
2022-08-26T23:17:57.043Z,12.32
2022-08-26T23:20:28.153Z,10.70
2022-08-26T23:22:55.545Z,13.35
2022-08-26T23:25:23.282Z,15.38
2022-08-26T23:27:52.057Z,10.68
2022-08-26T23:30:22.520Z,13.45
2022-08-26T23:32:50.100Z,15.57
2022-08-26T23:35:19.916Z,11.63
2022-08-26T23:37:48.958Z,16.00
2022-08-26T23:40:20.924Z,15.77
2022-08-26T23:42:47.941Z,14.52
2022-08-26T23:45:18.402Z,11.43
2022-08-26T23:47:45.655Z,11.98
2022-08-26T23:50:13.146Z,14.23
2022-08-26T23:52:58.323Z,12.20
2022-08-26T23:55:25.368Z,14.50
2022-08-26T23:57:52.169Z,11.98
